Temp: 14.0°C   Baro: 1018.4mb
  Wind: 4.0mph   Dir: NNE (28°)
  Rain: 0.0mm (0.0mm/hr)
  Solar: 0W/m2  Hum: 84%
 
Bath Spa Weather Station Historical Data
 
Daily Summary for September 20, 2020 Units:  Metric    English   Both
Daily Weekly Monthly Yearly Custom
  Current: High: Low: Average:
Temperature: 14 °C 14.7 °C 13.9 °C 14.2 °C
Dew Point: 11.8 °C 12.2 °C 11.7 °C 12 °C
Humidity: 84% 85% 82% 84%
Wind Speed: 1.8km/h 11.3km/h 1km/h 5.3km/h
Wind Gust: 6.4km/h 25.7km/h - -
WindWest - - ENE
Pressure: 1018.2 hPa 1018.5 hPa 1017.8 hPa -
Precipitation: 0 mm      
Historical Graphs
 
 
Tabular Data for September 20, 2020
Time Temperature Dew Point Pressure Wind Wind Speed Wind Gust Humidity Rainfall Rate (Hourly) solar
00:04 14.7 °C 12.1 °C 1018.2 hPa ENE 8 km/h 17.7 km/h 82% 0 mm 0 W/m2
00:09 14.6 °C 12.2 °C 1018.2 hPa ENE 4.5 km/h 17.7 km/h 83% 0 mm 0 W/m2
00:14 14.6 °C 12.2 °C 1018.2 hPa ENE 6.8 km/h 16.1 km/h 83% 0 mm 0 W/m2
00:19 14.5 °C 12.1 °C 1018.2 hPa ENE 5.5 km/h 17.7 km/h 83% 0 mm 0 W/m2
00:24 14.4 °C 12 °C 1018.2 hPa NE 5.6 km/h 16.1 km/h 83% 0 mm 0 W/m2
00:29 14.4 °C 12 °C 1018.2 hPa NE 6 km/h 17.7 km/h 83% 0 mm 0 W/m2
00:34 14.3 °C 11.9 °C 1018.2 hPa NE 8.2 km/h 22.5 km/h 83% 0 mm 0 W/m2
00:39 14.3 °C 12.1 °C 1018.2 hPa NNE 7.6 km/h 16.1 km/h 83.8% 0 mm 0 W/m2
00:44 14.3 °C 12.1 °C 1018.2 hPa ENE 3.2 km/h 16.1 km/h 84% 0 mm 0 W/m2
00:49 14.3 °C 12.1 °C 1018.2 hPa ENE 11.3 km/h 25.7 km/h 84% 0 mm 0 W/m2
00:54 14.3 °C 12.1 °C 1018.2 hPa NE 10 km/h 22.5 km/h 84% 0 mm 0 W/m2
00:59 14.2 °C 12 °C 1018.2 hPa ENE 10.3 km/h 22.5 km/h 84% 0 mm 0 W/m2
01:04 14.2 °C 12 °C 1017.8 hPa NE 7.1 km/h 20.9 km/h 84% 0 mm 0 W/m2
01:09 14.2 °C 12 °C 1017.8 hPa ENE 3.5 km/h 12.9 km/h 84% 0 mm 0 W/m2
01:14 14.2 °C 12.2 °C 1018.2 hPa NE 8.5 km/h 19.3 km/h 84.8% 0 mm 0 W/m2
01:18 14.2 °C 12.2 °C 1018.2 hPa East 6 km/h 17.7 km/h 84.8% 0 mm 0 W/m2
01:24 14.2 °C 12.2 °C 1018.2 hPa NNE 10.6 km/h 24.1 km/h 84.8% 0 mm 0 W/m2
01:29 14.2 °C 12.2 °C 1018.2 hPa NE 4.7 km/h 19.3 km/h 84.8% 0 mm 0 W/m2
01:34 14.2 °C 12.2 °C 1018.2 hPa North 3.9 km/h 12.9 km/h 85% 0 mm 0 W/m2
01:39 14.2 °C 12.2 °C 1018.2 hPa North 5 km/h 17.7 km/h 84.8% 0 mm 0 W/m2
01:44 14.2 °C 12.2 °C 1018.5 hPa ENE 1.9 km/h 17.7 km/h 85% 0 mm 0 W/m2
01:49 14.2 °C 12.2 °C 1018.5 hPa ENE 1.6 km/h 4.8 km/h 85% 0 mm 0 W/m2
01:53 14.2 °C 12.2 °C 1018.2 hPa NNE 3.2 km/h 11.3 km/h 85% 0 mm 0 W/m2
01:59 14.2 °C 12.2 °C 1018.2 hPa NNE 2.7 km/h 4.8 km/h 85% 0 mm 0 W/m2
02:04 14.2 °C 12.2 °C 1018.5 hPa NNE 7.7 km/h 22.5 km/h 85% 0 mm 0 W/m2
02:09 14.2 °C 12.1 °C 1018.5 hPa NNE 2.7 km/h 14.5 km/h 84.6% 0 mm 0 W/m2
02:14 14.2 °C 12.1 °C 1018.5 hPa NNW 3.5 km/h 8 km/h 84.4% 0 mm 0 W/m2
02:19 14.2 °C 12.1 °C 1018.5 hPa ENE 3.5 km/h 16.1 km/h 84.2% 0 mm 0 W/m2
02:24 14.2 °C 12.2 °C 1018.5 hPa ENE 3.7 km/h 16.1 km/h 84.8% 0 mm 0 W/m2
02:29 14.2 °C 12.2 °C 1018.5 hPa NNE 5.8 km/h 16.1 km/h 84.8% 0 mm 0 W/m2
02:34 14.2 °C 12 °C 1018.5 hPa NNE 1.3 km/h 11.3 km/h 84% 0 mm 0 W/m2
02:39 14.2 °C 12 °C 1018.5 hPa ENE 4.8 km/h 14.5 km/h 84% 0 mm 0 W/m2
02:44 14.2 °C 12 °C 1018.5 hPa NE 3.9 km/h 12.9 km/h 84% 0 mm 0 W/m2
02:49 14.2 °C 12 °C 1018.2 hPa NE 3.9 km/h 9.7 km/h 84% 0 mm 0 W/m2
02:54 14.2 °C 12 °C 1018.2 hPa NE 6.3 km/h 14.5 km/h 84% 0 mm 0 W/m2
02:59 14.2 °C 12 °C 1018.2 hPa NE 9.2 km/h 12.9 km/h 84% 0 mm 0 W/m2
03:04 14.2 °C 12 °C 1018.2 hPa ENE 7.2 km/h 17.7 km/h 84% 0 mm 0 W/m2
03:09 14.2 °C 12 °C 1018.2 hPa ENE 6.4 km/h 12.9 km/h 84% 0 mm 0 W/m2
03:14 14.2 °C 12 °C 1018.2 hPa ENE 5.8 km/h 17.7 km/h 84% 0 mm 0 W/m2
03:19 14.1 °C 11.9 °C 1018.2 hPa NE 7.9 km/h 24.1 km/h 84% 0 mm 0 W/m2
03:24 14.1 °C 11.9 °C 1018.2 hPa NE 8.7 km/h 24.1 km/h 84% 0 mm 0 W/m2
03:29 14.1 °C 11.9 °C 1018.2 hPa NE 7.2 km/h 14.5 km/h 84% 0 mm 0 W/m2
03:34 14.1 °C 11.9 °C 1018.2 hPa NE 6.8 km/h 14.5 km/h 84% 0 mm 0 W/m2
03:39 14.1 °C 11.9 °C 1018.2 hPa NE 2.1 km/h 14.5 km/h 84% 0 mm 0 W/m2
03:44 14.1 °C 11.9 °C 1018.2 hPa NNE 6.8 km/h 14.5 km/h 84% 0 mm 0 W/m2
03:49 14.1 °C 11.9 °C 1018.2 hPa ENE 6.6 km/h 14.5 km/h 84% 0 mm 0 W/m2
03:54 14.1 °C 11.9 °C 1018.2 hPa ENE 4.7 km/h 14.5 km/h 84% 0 mm 0 W/m2
03:59 14.1 °C 11.9 °C 1018.2 hPa NE 3.9 km/h 14.5 km/h 84% 0 mm 0 W/m2
04:04 14.1 °C 11.9 °C 1018.2 hPa NNE 5.6 km/h 14.5 km/h 84% 0 mm 0 W/m2
04:09 14.1 °C 11.9 °C 1018.2 hPa East 4.5 km/h 16.1 km/h 84% 0 mm 0 W/m2
04:14 14.1 °C 11.9 °C 1018.2 hPa ENE 6 km/h 16.1 km/h 84% 0 mm 0 W/m2
04:18 14.1 °C 11.9 °C 1018.2 hPa ENE 5.1 km/h 12.9 km/h 84% 0 mm 0 W/m2
04:24 14.1 °C 11.8 °C 1018.2 hPa ENE 3.5 km/h 16.1 km/h 84% 0 mm 0 W/m2
04:29 14.1 °C 11.8 °C 1018.2 hPa NE 5.1 km/h 16.1 km/h 84% 0 mm 0 W/m2
04:34 14.1 °C 11.9 °C 1018.2 hPa East 4 km/h 12.9 km/h 84% 0 mm 0 W/m2
04:39 14.1 °C 11.9 °C 1018.2 hPa NNE 2.6 km/h 12.9 km/h 84% 0 mm 0 W/m2
04:44 14 °C 11.8 °C 1018.2 hPa NE 5.8 km/h 16.1 km/h 84% 0 mm 0 W/m2
04:49 14 °C 11.8 °C 1018.2 hPa ENE 5.1 km/h 14.5 km/h 84% 0 mm 0 W/m2
04:54 14 °C 11.8 °C 1018.2 hPa NE 4 km/h 11.3 km/h 84% 0 mm 0 W/m2
04:59 14 °C 11.8 °C 1018.2 hPa NE 1 km/h 6.4 km/h 84% 0 mm 0 W/m2
05:04 13.9 °C 11.8 °C 1018.2 hPa NNW 3.5 km/h 9.7 km/h 84% 0 mm 0 W/m2
05:09 13.9 °C 11.7 °C 1018.2 hPa NW 2.6 km/h 4.8 km/h 84% 0 mm 0 W/m2
05:14 14 °C 11.8 °C 1018.2 hPa West 1.8 km/h 6.4 km/h 84% 0 mm 0 W/m2
Bath Spa Weather
Compliments of Weather Underground - 2 mb